CheckWX is a tool to help pilots better visualize weather data.  It is not intended as a substitute for an official pre-flight weather briefing.

21:30:08 UTC

KGUC METAR
Gunnison-Crested Butte Regional Airport
Gunnison, Colorado, USA
Current

2 hours ago

KGUC 231956Z AUTO 23018G30KT 10SM FEW065 11/02 A2982 RMK AO2 PK WND 25030/1952 SLP056 T01110017
Observed
May-23 @ 19:56 UTC
Wind
  • 230° at 18 KTS
  • Gusting to 30 KTS
Visibility
10 SM
Flight Rules
VFR
Cloud Levels
  • Few at 6,500' AGL
Temperature
11°C / 52°F
Dewpoint
C / 36°F
Humidity
54%
Altimeter
29.82" Hg
Pressure
1009.82 hPa
Previous

3 hours ago

KGUC 231856Z AUTO 21021G32KT 10SM FEW050 SCT080 11/01 A2983 RMK AO2 PK WND 20036/1832 WSHFT 1753 RAB23E45 SLP058 P0000 T01060011
Observed
May-23 @ 18:56 UTC
Wind
  • 210° at 21 KTS
  • Gusting to 32 KTS
Visibility
10 SM
Flight Rules
VFR
Cloud Levels
  • Few at 5,000' AGL
  • Scattered at 8,000' AGL
Temperature
11°C / 52°F
Dewpoint
C / 34°F
Humidity
50%
Altimeter
29.83" Hg
Pressure
1010.12 hPa
Current Rain
0.01"
Previous

3 hours ago

KGUC 231818Z AUTO 21015G27KT 10SM FEW050 SCT085 13/00 A2979 RMK AO2 PK WND 21032/1804 WSHFT 1753
Observed
May-23 @ 18:18 UTC
Wind
  • 210° at 15 KTS
  • Gusting to 27 KTS
Visibility
10 SM
Flight Rules
VFR
Cloud Levels
  • Few at 5,000' AGL
  • Scattered at 8,500' AGL
Temperature
13°C / 55°F
Dewpoint
C / 32°F
Humidity
41%
Altimeter
29.79" Hg
Pressure
1008.82 hPa